sensor_id;sensor_type;location;lat;lon;timestamp;temperature;humidity
75786;DHT22;64402;44.708;37.644;2022-12-10T00:01:23;14.17;80.78
75786;DHT22;64402;44.708;37.644;2022-12-10T00:03:50;14.17;80.81
75786;DHT22;64402;44.708;37.644;2022-12-10T00:06:22;14.13;81.01
75786;DHT22;64402;44.708;37.644;2022-12-10T00:08:49;14.11;81.24
75786;DHT22;64402;44.708;37.644;2022-12-10T00:11:18;14.09;81.42
75786;DHT22;64402;44.708;37.644;2022-12-10T00:13:45;14.13;81.78
75786;DHT22;64402;44.708;37.644;2022-12-10T00:16:13;14.15;81.52
75786;DHT22;64402;44.708;37.644;2022-12-10T00:18:40;14.18;81.39
75786;DHT22;64402;44.708;37.644;2022-12-10T00:21:12;14.20;81.59
75786;DHT22;64402;44.708;37.644;2022-12-10T00:23:40;14.21;81.44
75786;DHT22;64402;44.708;37.644;2022-12-10T00:26:16;14.19;81.79
75786;DHT22;64402;44.708;37.644;2022-12-10T00:28:43;14.20;81.88
75786;DHT22;64402;44.708;37.644;2022-12-10T00:31:12;14.18;81.97
75786;DHT22;64402;44.708;37.644;2022-12-10T00:33:40;14.20;82.04
75786;DHT22;64402;44.708;37.644;2022-12-10T00:36:12;14.19;82.51
75786;DHT22;64402;44.708;37.644;2022-12-10T00:38:40;14.18;82.41
75786;DHT22;64402;44.708;37.644;2022-12-10T00:41:08;14.18;82.47
75786;DHT22;64402;44.708;37.644;2022-12-10T00:43:35;14.10;82.75
75786;DHT22;64402;44.708;37.644;2022-12-10T00:46:02;14.10;82.74
75786;DHT22;64402;44.708;37.644;2022-12-10T00:48:28;14.05;82.65
75786;DHT22;64402;44.708;37.644;2022-12-10T00:51:03;14.01;82.58
75786;DHT22;64402;44.708;37.644;2022-12-10T00:53:31;13.99;82.47
75786;DHT22;64402;44.708;37.644;2022-12-10T00:55:58;14.00;82.36
75786;DHT22;64402;44.708;37.644;2022-12-10T00:58:30;14.00;82.33
75786;DHT22;64402;44.708;37.644;2022-12-10T01:01:31;13.99;81.81
75786;DHT22;64402;44.708;37.644;2022-12-10T01:03:59;14.01;81.84
75786;DHT22;64402;44.708;37.644;2022-12-10T01:06:34;14.04;81.49
75786;DHT22;64402;44.708;37.644;2022-12-10T01:09:05;14.03;81.68
75786;DHT22;64402;44.708;37.644;2022-12-10T01:11:34;14.04;81.68
75786;DHT22;64402;44.708;37.644;2022-12-10T01:14:03;14.03;81.91
75786;DHT22;64402;44.708;37.644;2022-12-10T01:16:30;14.05;81.42
75786;DHT22;64402;44.708;37.644;2022-12-10T01:18:57;14.03;81.39
75786;DHT22;64402;44.708;37.644;2022-12-10T01:21:32;14.03;81.61
75786;DHT22;64402;44.708;37.644;2022-12-10T01:24:06;14.01;81.23
75786;DHT22;64402;44.708;37.644;2022-12-10T01:26:34;14.04;81.02
75786;DHT22;64402;44.708;37.644;2022-12-10T01:29:03;14.05;81.20
75786;DHT22;64402;44.708;37.644;2022-12-10T01:31:33;14.05;81.22
75786;DHT22;64402;44.708;37.644;2022-12-10T01:34:01;14.07;81.17
75786;DHT22;64402;44.708;37.644;2022-12-10T01:36:29;14.09;81.24
75786;DHT22;64402;44.708;37.644;2022-12-10T01:38:56;14.08;81.25
75786;DHT22;64402;44.708;37.644;2022-12-10T01:41:25;14.06;81.68
75786;DHT22;64402;44.708;37.644;2022-12-10T01:43:56;14.07;81.71
75786;DHT22;64402;44.708;37.644;2022-12-10T01:46:31;14.08;82.32
75786;DHT22;64402;44.708;37.644;2022-12-10T01:48:59;14.11;82.10
75786;DHT22;64402;44.708;37.644;2022-12-10T01:51:27;14.12;82.57
75786;DHT22;64402;44.708;37.644;2022-12-10T01:53:54;14.12;82.93
75786;DHT22;64402;44.708;37.644;2022-12-10T01:56:21;14.13;83.16
75786;DHT22;64402;44.708;37.644;2022-12-10T01:58:50;14.14;83.04
75786;DHT22;64402;44.708;37.644;2022-12-10T02:07:00;14.12;83.31
75786;DHT22;64402;44.708;37.644;2022-12-10T02:09:38;14.11;83.63
75786;DHT22;64402;44.708;37.644;2022-12-10T02:12:15;14.13;83.58
75786;DHT22;64402;44.708;37.644;2022-12-10T02:15:00;14.11;83.46
75786;DHT22;64402;44.708;37.644;2022-12-10T02:17:34;14.13;83.20
75786;DHT22;64402;44.708;37.644;2022-12-10T02:20:22;14.17;83.04
75786;DHT22;64402;44.708;37.644;2022-12-10T02:23:35;14.18;82.86
75786;DHT22;64402;44.708;37.644;2022-12-10T02:31:05;14.17;82.97
75786;DHT22;64402;44.708;37.644;2022-12-10T02:33:33;14.14;83.31
75786;DHT22;64402;44.708;37.644;2022-12-10T02:36:02;14.12;83.36
75786;DHT22;64402;44.708;37.644;2022-12-10T02:38:36;14.14;83.37
75786;DHT22;64402;44.708;37.644;2022-12-10T02:41:06;14.17;83.35
75786;DHT22;64402;44.708;37.644;2022-12-10T02:43:34;14.14;83.46
75786;DHT22;64402;44.708;37.644;2022-12-10T02:46:03;14.13;83.49
75786;DHT22;64402;44.708;37.644;2022-12-10T02:48:31;14.12;83.21
75786;DHT22;64402;44.708;37.644;2022-12-10T02:50:58;14.14;83.19
75786;DHT22;64402;44.708;37.644;2022-12-10T02:53:25;14.14;83.10
75786;DHT22;64402;44.708;37.644;2022-12-10T02:56:26;14.17;82.97
75786;DHT22;64402;44.708;37.644;2022-12-10T02:59:34;14.18;82.87
75786;DHT22;64402;44.708;37.644;2022-12-10T03:02:13;14.18;82.58
75786;DHT22;64402;44.708;37.644;2022-12-10T03:04:50;14.15;82.65
75786;DHT22;64402;44.708;37.644;2022-12-10T03:07:28;14.15;82.51
75786;DHT22;64402;44.708;37.644;2022-12-10T03:12:49;14.11;82.47
75786;DHT22;64402;44.708;37.644;2022-12-10T03:15:19;14.11;82.28
75786;DHT22;64402;44.708;37.644;2022-12-10T03:17:48;14.12;82.18
75786;DHT22;64402;44.708;37.644;2022-12-10T03:20:16;14.08;82.36
75786;DHT22;64402;44.708;37.644;2022-12-10T03:22:45;14.07;82.45
75786;DHT22;64402;44.708;37.644;2022-12-10T03:25:18;14.05;82.49
75786;DHT22;64402;44.708;37.644;2022-12-10T03:27:45;14.03;82.61
75786;DHT22;64402;44.708;37.644;2022-12-10T03:30:16;14.01;82.15
75786;DHT22;64402;44.708;37.644;2022-12-10T03:32:43;14.03;81.91
75786;DHT22;64402;44.708;37.644;2022-12-10T03:35:11;14.01;81.77
75786;DHT22;64402;44.708;37.644;2022-12-10T03:37:38;13.97;82.04
75786;DHT22;64402;44.708;37.644;2022-12-10T03:40:06;14.00;82.30
75786;DHT22;64402;44.708;37.644;2022-12-10T03:42:35;14.01;81.95
75786;DHT22;64402;44.708;37.644;2022-12-10T03:45:03;14.03;81.76
75786;DHT22;64402;44.708;37.644;2022-12-10T03:47:29;14.05;82.15
75786;DHT22;64402;44.708;37.644;2022-12-10T03:49:56;14.08;82.68
75786;DHT22;64402;44.708;37.644;2022-12-10T03:52:22;14.10;82.84
75786;DHT22;64402;44.708;37.644;2022-12-10T03:54:49;14.12;82.91
75786;DHT22;64402;44.708;37.644;2022-12-10T03:57:15;14.18;82.51
75786;DHT22;64402;44.708;37.644;2022-12-10T03:59:41;14.14;83.74
75786;DHT22;64402;44.708;37.644;2022-12-10T04:02:08;14.12;84.80
75786;DHT22;64402;44.708;37.644;2022-12-10T04:04:34;14.10;84.66
75786;DHT22;64402;44.708;37.644;2022-12-10T04:07:01;14.09;84.83
75786;DHT22;64402;44.708;37.644;2022-12-10T04:09:27;14.09;84.66
75786;DHT22;64402;44.708;37.644;2022-12-10T04:11:57;14.07;84.36
75786;DHT22;64402;44.708;37.644;2022-12-10T04:14:25;14.09;84.49
75786;DHT22;64402;44.708;37.644;2022-12-10T04:17:10;14.09;85.03
75786;DHT22;64402;44.708;37.644;2022-12-10T04:19:37;14.08;85.25
75786;DHT22;64402;44.708;37.644;2022-12-10T04:22:04;14.09;85.13
75786;DHT22;64402;44.708;37.644;2022-12-10T04:24:49;14.12;85.16
75786;DHT22;64402;44.708;37.644;2022-12-10T04:27:38;14.19;84.92
75786;DHT22;64402;44.708;37.644;2022-12-10T04:30:07;14.21;84.88
75786;DHT22;64402;44.708;37.644;2022-12-10T04:32:34;14.21;84.65
75786;DHT22;64402;44.708;37.644;2022-12-10T04:35:00;14.18;84.77
75786;DHT22;64402;44.708;37.644;2022-12-10T04:37:27;14.18;84.84
75786;DHT22;64402;44.708;37.644;2022-12-10T04:39:54;14.18;84.87
75786;DHT22;64402;44.708;37.644;2022-12-10T04:42:21;14.17;85.01
75786;DHT22;64402;44.708;37.644;2022-12-10T04:44:48;14.17;84.64
75786;DHT22;64402;44.708;37.644;2022-12-10T04:47:15;14.18;84.55
75786;DHT22;64402;44.708;37.644;2022-12-10T04:49:42;14.18;84.52
75786;DHT22;64402;44.708;37.644;2022-12-10T04:52:11;14.15;84.39
75786;DHT22;64402;44.708;37.644;2022-12-10T04:54:38;14.13;84.39
75786;DHT22;64402;44.708;37.644;2022-12-10T04:57:05;14.14;84.14
75786;DHT22;64402;44.708;37.644;2022-12-10T04:59:32;14.14;83.75
75786;DHT22;64402;44.708;37.644;2022-12-10T05:01:58;14.12;83.65
75786;DHT22;64402;44.708;37.644;2022-12-10T05:04:25;14.12;83.53
75786;DHT22;64402;44.708;37.644;2022-12-10T05:06:51;14.12;83.45
75786;DHT22;64402;44.708;37.644;2022-12-10T05:09:17;14.13;83.42
75786;DHT22;64402;44.708;37.644;2022-12-10T05:11:44;14.08;82.97
75786;DHT22;64402;44.708;37.644;2022-12-10T05:14:12;14.10;82.84
75786;DHT22;64402;44.708;37.644;2022-12-10T05:16:39;14.15;83.34
75786;DHT22;64402;44.708;37.644;2022-12-10T05:19:06;14.14;82.60
75786;DHT22;64402;44.708;37.644;2022-12-10T05:21:33;14.15;82.57
75786;DHT22;64402;44.708;37.644;2022-12-10T05:24:18;14.17;82.89
75786;DHT22;64402;44.708;37.644;2022-12-10T05:26:44;14.15;82.26
75786;DHT22;64402;44.708;37.644;2022-12-10T05:29:13;14.20;81.97
75786;DHT22;64402;44.708;37.644;2022-12-10T05:31:40;14.22;81.99
75786;DHT22;64402;44.708;37.644;2022-12-10T05:34:06;14.26;81.88
75786;DHT22;64402;44.708;37.644;2022-12-10T05:36:34;14.29;81.43
75786;DHT22;64402;44.708;37.644;2022-12-10T05:39:01;14.29;81.22
75786;DHT22;64402;44.708;37.644;2022-12-10T05:41:30;14.34;80.89
75786;DHT22;64402;44.708;37.644;2022-12-10T05:43:58;14.34;81.27
75786;DHT22;64402;44.708;37.644;2022-12-10T05:46:27;14.29;81.52
75786;DHT22;64402;44.708;37.644;2022-12-10T05:48:56;14.30;81.41
75786;DHT22;64402;44.708;37.644;2022-12-10T05:51:27;14.29;81.62
75786;DHT22;64402;44.708;37.644;2022-12-10T05:53:54;14.32;81.89
75786;DHT22;64402;44.708;37.644;2022-12-10T05:56:23;14.30;82.55
75786;DHT22;64402;44.708;37.644;2022-12-10T05:58:52;14.32;82.49
75786;DHT22;64402;44.708;37.644;2022-12-10T06:01:23;14.35;82.65
75786;DHT22;64402;44.708;37.644;2022-12-10T06:03:50;14.38;82.44
75786;DHT22;64402;44.708;37.644;2022-12-10T06:06:23;14.42;82.32
75786;DHT22;64402;44.708;37.644;2022-12-10T06:08:51;14.42;82.29
75786;DHT22;64402;44.708;37.644;2022-12-10T06:11:18;14.43;82.25
75786;DHT22;64402;44.708;37.644;2022-12-10T06:13:45;14.44;82.16
75786;DHT22;64402;44.708;37.644;2022-12-10T06:16:13;14.43;82.27
75786;DHT22;64402;44.708;37.644;2022-12-10T06:18:41;14.48;82.31
75786;DHT22;64402;44.708;37.644;2022-12-10T06:21:11;14.43;82.15
75786;DHT22;64402;44.708;37.644;2022-12-10T06:23:39;14.43;82.20
75786;DHT22;64402;44.708;37.644;2022-12-10T06:26:13;14.40;82.58
75786;DHT22;64402;44.708;37.644;2022-12-10T06:28:40;14.47;82.25
75786;DHT22;64402;44.708;37.644;2022-12-10T06:31:07;14.45;81.97
75786;DHT22;64402;44.708;37.644;2022-12-10T06:33:33;14.42;82.19
75786;DHT22;64402;44.708;37.644;2022-12-10T06:36:06;14.43;82.21
75786;DHT22;64402;44.708;37.644;2022-12-10T06:38:33;14.43;81.91
75786;DHT22;64402;44.708;37.644;2022-12-10T06:41:00;14.45;81.75
75786;DHT22;64402;44.708;37.644;2022-12-10T06:43:30;14.48;81.19
75786;DHT22;64402;44.708;37.644;2022-12-10T06:45:56;14.54;81.42
75786;DHT22;64402;44.708;37.644;2022-12-10T06:48:23;14.56;80.64
75786;DHT22;64402;44.708;37.644;2022-12-10T06:50:50;14.60;80.04
75786;DHT22;64402;44.708;37.644;2022-12-10T06:53:16;14.65;79.54
75786;DHT22;64402;44.708;37.644;2022-12-10T06:55:42;14.64;79.69
75786;DHT22;64402;44.708;37.644;2022-12-10T06:58:09;14.70;79.21
75786;DHT22;64402;44.708;37.644;2022-12-10T07:00:35;14.71;79.07
75786;DHT22;64402;44.708;37.644;2022-12-10T07:03:02;14.71;79.06
75786;DHT22;64402;44.708;37.644;2022-12-10T07:05:28;14.75;78.50
75786;DHT22;64402;44.708;37.644;2022-12-10T07:07:55;14.74;77.70
75786;DHT22;64402;44.708;37.644;2022-12-10T07:10:22;14.79;77.93
75786;DHT22;64402;44.708;37.644;2022-12-10T07:12:48;14.77;77.74
75786;DHT22;64402;44.708;37.644;2022-12-10T07:15:15;14.77;77.97
75786;DHT22;64402;44.708;37.644;2022-12-10T07:17:41;14.82;77.16
75786;DHT22;64402;44.708;37.644;2022-12-10T07:20:08;14.88;77.08
75786;DHT22;64402;44.708;37.644;2022-12-10T07:22:35;14.94;77.15
75786;DHT22;64402;44.708;37.644;2022-12-10T07:25:01;15.09;75.92
75786;DHT22;64402;44.708;37.644;2022-12-10T07:27:29;15.22;76.05
75786;DHT22;64402;44.708;37.644;2022-12-10T07:29:57;15.16;76.15
75786;DHT22;64402;44.708;37.644;2022-12-10T07:32:23;15.13;76.33
75786;DHT22;64402;44.708;37.644;2022-12-10T07:34:50;15.04;77.15
75786;DHT22;64402;44.708;37.644;2022-12-10T07:37:16;15.06;77.08
75786;DHT22;64402;44.708;37.644;2022-12-10T07:39:43;15.10;77.11
75786;DHT22;64402;44.708;37.644;2022-12-10T07:42:09;15.11;76.15
75786;DHT22;64402;44.708;37.644;2022-12-10T07:44:36;15.46;76.61
75786;DHT22;64402;44.708;37.644;2022-12-10T07:47:02;15.75;75.43
75786;DHT22;64402;44.708;37.644;2022-12-10T07:49:35;16.01;73.69
75786;DHT22;64402;44.708;37.644;2022-12-10T07:52:02;16.22;74.29
75786;DHT22;64402;44.708;37.644;2022-12-10T07:54:29;16.58;73.51
75786;DHT22;64402;44.708;37.644;2022-12-10T07:56:55;16.89;72.13
75786;DHT22;64402;44.708;37.644;2022-12-10T07:59:22;17.19;70.84
75786;DHT22;64402;44.708;37.644;2022-12-10T08:01:48;17.25;68.33
75786;DHT22;64402;44.708;37.644;2022-12-10T08:04:15;17.24;69.69
75786;DHT22;64402;44.708;37.644;2022-12-10T08:06:42;17.23;68.87
75786;DHT22;64402;44.708;37.644;2022-12-10T08:09:09;17.21;69.31
75786;DHT22;64402;44.708;37.644;2022-12-10T08:11:35;17.18;67.76
75786;DHT22;64402;44.708;37.644;2022-12-10T08:14:02;17.32;69.25
75786;DHT22;64402;44.708;37.644;2022-12-10T08:16:29;17.37;67.69
75786;DHT22;64402;44.708;37.644;2022-12-10T08:18:58;17.17;69.13
75786;DHT22;64402;44.708;37.644;2022-12-10T08:21:27;17.22;68.00
75786;DHT22;64402;44.708;37.644;2022-12-10T08:23:55;17.38;68.44
75786;DHT22;64402;44.708;37.644;2022-12-10T08:26:27;17.59;67.34
75786;DHT22;64402;44.708;37.644;2022-12-10T08:28:55;17.70;67.42
75786;DHT22;64402;44.708;37.644;2022-12-10T08:31:22;17.98;66.42
75786;DHT22;64402;44.708;37.644;2022-12-10T08:33:50;18.32;64.68
75786;DHT22;64402;44.708;37.644;2022-12-10T08:36:18;18.57;63.17
75786;DHT22;64402;44.708;37.644;2022-12-10T08:38:45;18.70;64.75
75786;DHT22;64402;44.708;37.644;2022-12-10T08:41:14;19.11;63.74
75786;DHT22;64402;44.708;37.644;2022-12-10T08:43:41;19.20;62.81
75786;DHT22;64402;44.708;37.644;2022-12-10T08:46:08;19.14;62.76
75786;DHT22;64402;44.708;37.644;2022-12-10T08:48:35;19.12;62.17
75786;DHT22;64402;44.708;37.644;2022-12-10T08:51:03;19.21;62.18
75786;DHT22;64402;44.708;37.644;2022-12-10T08:53:30;19.17;61.95
75786;DHT22;64402;44.708;37.644;2022-12-10T08:55:56;19.14;62.76
75786;DHT22;64402;44.708;37.644;2022-12-10T08:58:22;19.23;61.11
75786;DHT22;64402;44.708;37.644;2022-12-10T09:00:49;19.38;60.84
75786;DHT22;64402;44.708;37.644;2022-12-10T09:03:16;19.53;60.70
75786;DHT22;64402;44.708;37.644;2022-12-10T09:05:43;19.81;60.27
75786;DHT22;64402;44.708;37.644;2022-12-10T09:08:10;20.05;59.98
75786;DHT22;64402;44.708;37.644;2022-12-10T09:10:38;20.24;59.07
75786;DHT22;64402;44.708;37.644;2022-12-10T09:13:05;20.34;59.16
75786;DHT22;64402;44.708;37.644;2022-12-10T09:15:34;20.55;58.20
75786;DHT22;64402;44.708;37.644;2022-12-10T09:18:03;20.45;58.19
75786;DHT22;64402;44.708;37.644;2022-12-10T09:20:30;20.43;59.08
75786;DHT22;64402;44.708;37.644;2022-12-10T09:22:58;20.27;58.99
75786;DHT22;64402;44.708;37.644;2022-12-10T09:25:25;20.12;59.32
75786;DHT22;64402;44.708;37.644;2022-12-10T09:27:52;20.15;59.40
75786;DHT22;64402;44.708;37.644;2022-12-10T09:30:18;20.13;59.21
75786;DHT22;64402;44.708;37.644;2022-12-10T09:32:45;20.40;58.47
75786;DHT22;64402;44.708;37.644;2022-12-10T09:35:11;20.59;57.39
75786;DHT22;64402;44.708;37.644;2022-12-10T09:37:37;20.45;58.16
75786;DHT22;64402;44.708;37.644;2022-12-10T09:40:04;20.48;58.03
75786;DHT22;64402;44.708;37.644;2022-12-10T09:43:12;19.99;58.96
75786;DHT22;64402;44.708;37.644;2022-12-10T13:54:15;14.64;73.06
75786;DHT22;64402;44.708;37.644;2022-12-10T14:00:23;14.64;73.28
75786;DHT22;64402;44.708;37.644;2022-12-10T14:08:35;14.64;72.76
75786;DHT22;64402;44.708;37.644;2022-12-10T14:11:05;14.67;72.76
75786;DHT22;64402;44.708;37.644;2022-12-10T14:13:40;14.68;72.74
75786;DHT22;64402;44.708;37.644;2022-12-10T14:16:14;14.70;72.59
75786;DHT22;64402;44.708;37.644;2022-12-10T14:18:50;14.70;72.24
75786;DHT22;64402;44.708;37.644;2022-12-10T14:21:18;14.67;71.87
75786;DHT22;64402;44.708;37.644;2022-12-10T14:23:46;14.69;72.03
75786;DHT22;64402;44.708;37.644;2022-12-10T14:26:18;14.66;71.90
75786;DHT22;64402;44.708;37.644;2022-12-10T14:29:00;14.65;71.34
75786;DHT22;64402;44.708;37.644;2022-12-10T14:31:43;14.62;69.97
75786;DHT22;64402;44.708;37.644;2022-12-10T14:34:14;14.59;71.30
75786;DHT22;64402;44.708;37.644;2022-12-10T14:36:47;14.57;71.88
75786;DHT22;64402;44.708;37.644;2022-12-10T14:39:24;14.54;72.38
75786;DHT22;64402;44.708;37.644;2022-12-10T14:41:54;14.54;72.77
75786;DHT22;64402;44.708;37.644;2022-12-10T14:44:21;14.52;72.78
75786;DHT22;64402;44.708;37.644;2022-12-10T14:46:49;14.50;73.30
75786;DHT22;64402;44.708;37.644;2022-12-10T14:49:25;14.49;73.49
75786;DHT22;64402;44.708;37.644;2022-12-10T14:51:52;14.48;73.76
75786;DHT22;64402;44.708;37.644;2022-12-10T14:54:34;14.44;73.23
75786;DHT22;64402;44.708;37.644;2022-12-10T14:57:05;14.44;73.90
75786;DHT22;64402;44.708;37.644;2022-12-10T15:02:38;14.47;73.80
75786;DHT22;64402;44.708;37.644;2022-12-10T15:05:21;14.42;74.38
75786;DHT22;64402;44.708;37.644;2022-12-10T15:08:11;14.41;74.67
75786;DHT22;64402;44.708;37.644;2022-12-10T15:10:48;14.39;74.10
75786;DHT22;64402;44.708;37.644;2022-12-10T15:13:27;14.42;74.66
75786;DHT22;64402;44.708;37.644;2022-12-10T15:15:55;14.43;74.05
75786;DHT22;64402;44.708;37.644;2022-12-10T15:18:31;14.42;74.00
75786;DHT22;64402;44.708;37.644;2022-12-10T15:21:09;14.44;73.57
75786;DHT22;64402;44.708;37.644;2022-12-10T15:23:36;14.48;72.30
75786;DHT22;64402;44.708;37.644;2022-12-10T15:28:49;14.49;71.42
75786;DHT22;64402;44.708;37.644;2022-12-10T15:31:29;14.52;71.63
75786;DHT22;64402;44.708;37.644;2022-12-10T15:33:58;14.56;71.01
75786;DHT22;64402;44.708;37.644;2022-12-10T15:41:47;14.56;72.28
75786;DHT22;64402;44.708;37.644;2022-12-10T15:47:19;14.54;72.62
75786;DHT22;64402;44.708;37.644;2022-12-10T15:49:47;14.52;72.64
75786;DHT22;64402;44.708;37.644;2022-12-10T15:52:24;14.51;72.48
75786;DHT22;64402;44.708;37.644;2022-12-10T15:54:53;14.53;71.96
75786;DHT22;64402;44.708;37.644;2022-12-10T15:57:25;14.52;71.63
75786;DHT22;64402;44.708;37.644;2022-12-10T15:59:54;14.53;72.35
75786;DHT22;64402;44.708;37.644;2022-12-10T16:02:30;14.50;72.61
75786;DHT22;64402;44.708;37.644;2022-12-10T16:04:57;14.50;71.84
75786;DHT22;64402;44.708;37.644;2022-12-10T16:07:24;14.51;72.27
75786;DHT22;64402;44.708;37.644;2022-12-10T16:09:50;14.50;72.02
75786;DHT22;64402;44.708;37.644;2022-12-10T16:12:17;14.51;72.06
75786;DHT22;64402;44.708;37.644;2022-12-10T16:14:51;14.47;72.85
75786;DHT22;64402;44.708;37.644;2022-12-10T16:17:18;14.43;72.64
75786;DHT22;64402;44.708;37.644;2022-12-10T16:19:45;14.45;72.93
75786;DHT22;64402;44.708;37.644;2022-12-10T16:22:13;14.45;72.67
75786;DHT22;64402;44.708;37.644;2022-12-10T16:24:39;14.48;72.29
75786;DHT22;64402;44.708;37.644;2022-12-10T16:27:12;14.50;73.20
75786;DHT22;64402;44.708;37.644;2022-12-10T16:29:40;14.52;72.66
75786;DHT22;64402;44.708;37.644;2022-12-10T16:32:11;14.51;73.47
75786;DHT22;64402;44.708;37.644;2022-12-10T16:34:38;14.49;72.93
75786;DHT22;64402;44.708;37.644;2022-12-10T16:37:05;14.50;72.77
75786;DHT22;64402;44.708;37.644;2022-12-10T16:39:32;14.48;73.10
75786;DHT22;64402;44.708;37.644;2022-12-10T16:41:59;14.47;72.81
75786;DHT22;64402;44.708;37.644;2022-12-10T16:44:25;14.44;73.45
75786;DHT22;64402;44.708;37.644;2022-12-10T16:46:52;14.43;73.32
75786;DHT22;64402;44.708;37.644;2022-12-10T16:49:18;14.47;72.09
75786;DHT22;64402;44.708;37.644;2022-12-10T16:51:44;14.45;72.63
75786;DHT22;64402;44.708;37.644;2022-12-10T16:54:10;14.47;73.29
75786;DHT22;64402;44.708;37.644;2022-12-10T16:56:37;14.48;74.17
75786;DHT22;64402;44.708;37.644;2022-12-10T16:59:04;14.49;73.70
75786;DHT22;64402;44.708;37.644;2022-12-10T17:01:30;14.47;72.93
75786;DHT22;64402;44.708;37.644;2022-12-10T17:03:57;14.45;73.94
75786;DHT22;64402;44.708;37.644;2022-12-10T17:06:28;14.48;74.11
75786;DHT22;64402;44.708;37.644;2022-12-10T17:08:55;14.51;73.54
75786;DHT22;64402;44.708;37.644;2022-12-10T17:11:27;14.52;74.25
75786;DHT22;64402;44.708;37.644;2022-12-10T17:14:26;14.57;74.64
75786;DHT22;64402;44.708;37.644;2022-12-10T17:16:55;14.55;74.21
75786;DHT22;64402;44.708;37.644;2022-12-10T17:19:24;14.53;74.48
75786;DHT22;64402;44.708;37.644;2022-12-10T17:21:55;14.52;74.55
75786;DHT22;64402;44.708;37.644;2022-12-10T17:24:27;14.52;74.73
75786;DHT22;64402;44.708;37.644;2022-12-10T17:27:10;14.50;74.23
75786;DHT22;64402;44.708;37.644;2022-12-10T17:29:43;14.48;74.42
75786;DHT22;64402;44.708;37.644;2022-12-10T17:32:21;14.45;73.06
75786;DHT22;64402;44.708;37.644;2022-12-10T17:34:53;14.47;73.81
75786;DHT22;64402;44.708;37.644;2022-12-10T17:37:31;14.47;74.27
75786;DHT22;64402;44.708;37.644;2022-12-10T17:40:13;14.45;74.51
75786;DHT22;64402;44.708;37.644;2022-12-10T17:42:45;14.48;74.28
75786;DHT22;64402;44.708;37.644;2022-12-10T17:45:18;14.45;74.64
75786;DHT22;64402;44.708;37.644;2022-12-10T17:47:50;14.40;75.21
75786;DHT22;64402;44.708;37.644;2022-12-10T17:50:27;14.41;75.44
75786;DHT22;64402;44.708;37.644;2022-12-10T17:53:06;14.41;75.26
75786;DHT22;64402;44.708;37.644;2022-12-10T17:55:43;14.40;76.02
75786;DHT22;64402;44.708;37.644;2022-12-10T17:58:15;14.42;75.96
75786;DHT22;64402;44.708;37.644;2022-12-10T18:00:47;14.40;76.03
75786;DHT22;64402;44.708;37.644;2022-12-10T18:03:19;14.38;76.20
75786;DHT22;64402;44.708;37.644;2022-12-10T18:05:51;14.39;76.04
75786;DHT22;64402;44.708;37.644;2022-12-10T18:08:23;14.39;75.66
75786;DHT22;64402;44.708;37.644;2022-12-10T18:10:54;14.42;75.60
75786;DHT22;64402;44.708;37.644;2022-12-10T18:13:28;14.48;75.15
75786;DHT22;64402;44.708;37.644;2022-12-10T18:15:59;14.49;75.29
75786;DHT22;64402;44.708;37.644;2022-12-10T18:18:30;14.44;74.66
75786;DHT22;64402;44.708;37.644;2022-12-10T18:21:02;14.40;75.90
75786;DHT22;64402;44.708;37.644;2022-12-10T18:23:34;14.41;73.48
75786;DHT22;64402;44.708;37.644;2022-12-10T18:26:11;14.43;73.74
75786;DHT22;64402;44.708;37.644;2022-12-10T18:28:55;14.45;74.09
75786;DHT22;64402;44.708;37.644;2022-12-10T18:31:29;14.47;74.53
75786;DHT22;64402;44.708;37.644;2022-12-10T18:34:06;14.45;74.06
75786;DHT22;64402;44.708;37.644;2022-12-10T18:36:41;14.45;74.29
75786;DHT22;64402;44.708;37.644;2022-12-10T18:39:21;14.43;75.14
75786;DHT22;64402;44.708;37.644;2022-12-10T18:41:53;14.48;73.39
75786;DHT22;64402;44.708;37.644;2022-12-10T18:44:26;14.48;74.07
75786;DHT22;64402;44.708;37.644;2022-12-10T18:46:58;14.51;73.32
75786;DHT22;64402;44.708;37.644;2022-12-10T18:49:30;14.50;73.57
75786;DHT22;64402;44.708;37.644;2022-12-10T18:52:03;14.47;72.93
75786;DHT22;64402;44.708;37.644;2022-12-10T18:54:34;14.47;72.63
75786;DHT22;64402;44.708;37.644;2022-12-10T18:57:06;14.47;73.38
75786;DHT22;64402;44.708;37.644;2022-12-10T18:59:37;14.45;73.05
75786;DHT22;64402;44.708;37.644;2022-12-10T19:02:10;14.44;73.58
75786;DHT22;64402;44.708;37.644;2022-12-10T19:04:41;14.43;72.51
75786;DHT22;64402;44.708;37.644;2022-12-10T19:07:13;14.47;72.85
75786;DHT22;64402;44.708;37.644;2022-12-10T19:09:44;14.47;72.51
75786;DHT22;64402;44.708;37.644;2022-12-10T19:12:16;14.44;72.19
75786;DHT22;64402;44.708;37.644;2022-12-10T19:14:47;14.38;72.09
75786;DHT22;64402;44.708;37.644;2022-12-10T19:17:19;14.38;72.16
75786;DHT22;64402;44.708;37.644;2022-12-10T19:19:52;14.34;72.11
75786;DHT22;64402;44.708;37.644;2022-12-10T19:22:25;14.30;72.13
75786;DHT22;64402;44.708;37.644;2022-12-10T19:24:56;14.33;71.50
75786;DHT22;64402;44.708;37.644;2022-12-10T19:27:27;14.32;71.26
75786;DHT22;64402;44.708;37.644;2022-12-10T19:30:00;14.35;71.44
75786;DHT22;64402;44.708;37.644;2022-12-10T19:32:31;14.36;71.62
75786;DHT22;64402;44.708;37.644;2022-12-10T19:35:04;14.36;72.06
75786;DHT22;64402;44.708;37.644;2022-12-10T19:37:36;14.36;71.84
75786;DHT22;64402;44.708;37.644;2022-12-10T19:40:19;14.35;71.23
75786;DHT22;64402;44.708;37.644;2022-12-10T19:42:54;14.33;71.38
75786;DHT22;64402;44.708;37.644;2022-12-10T19:45:29;14.36;71.29
75786;DHT22;64402;44.708;37.644;2022-12-10T19:48:03;14.36;69.68
75786;DHT22;64402;44.708;37.644;2022-12-10T19:50:38;14.36;71.04
75786;DHT22;64402;44.708;37.644;2022-12-10T19:53:12;14.37;71.07
75786;DHT22;64402;44.708;37.644;2022-12-10T19:55:44;14.39;71.29
75786;DHT22;64402;44.708;37.644;2022-12-10T19:58:15;14.37;71.19
75786;DHT22;64402;44.708;37.644;2022-12-10T20:00:47;14.39;71.15
75786;DHT22;64402;44.708;37.644;2022-12-10T20:03:18;14.41;70.87
75786;DHT22;64402;44.708;37.644;2022-12-10T20:05:50;14.45;71.23
75786;DHT22;64402;44.708;37.644;2022-12-10T20:08:21;14.48;70.43
75786;DHT22;64402;44.708;37.644;2022-12-10T20:10:52;14.48;69.84
75786;DHT22;64402;44.708;37.644;2022-12-10T20:13:24;14.48;69.71
75786;DHT22;64402;44.708;37.644;2022-12-10T20:15:56;14.47;69.96
75786;DHT22;64402;44.708;37.644;2022-12-10T20:18:28;14.42;70.20
75786;DHT22;64402;44.708;37.644;2022-12-10T20:20:59;14.39;69.99